createdAt,value
2022-12-25T00:03:11.607Z,10.20
2022-12-25T00:08:18.003Z,9.10
2022-12-25T00:13:25.533Z,8.30
2022-12-25T00:18:30.968Z,14.27
2022-12-25T00:23:38.784Z,8.23
2022-12-25T00:28:46.617Z,9.50
2022-12-25T00:33:52.789Z,11.23
2022-12-25T00:38:57.745Z,9.63
2022-12-25T00:44:07.015Z,11.30
2022-12-25T00:49:12.166Z,11.27
2022-12-25T00:54:17.104Z,11.37
2022-12-25T00:59:25.223Z,10.30
2022-12-25T01:04:30.246Z,6.63
2022-12-25T01:09:48.603Z,8.10
2022-12-25T01:14:56.247Z,9.30
2022-12-25T01:20:01.323Z,11.40
2022-12-25T01:25:07.243Z,9.03
2022-12-25T01:30:15.646Z,9.93
2022-12-25T01:35:20.749Z,6.63
2022-12-25T01:40:28.320Z,8.63
2022-12-25T01:45:48.614Z,14.70
2022-12-25T01:50:58.597Z,7.17
2022-12-25T01:56:09.033Z,9.13
2022-12-25T02:01:17.834Z,8.07
2022-12-25T02:06:24.881Z,10.30
2022-12-25T02:11:42.539Z,9.63
2022-12-25T02:16:57.714Z,8.17
2022-12-25T02:22:15.468Z,7.67
2022-12-25T02:27:31.196Z,10.57
2022-12-25T02:32:46.931Z,8.10
2022-12-25T02:37:58.059Z,6.93
2022-12-25T02:43:18.910Z,7.53
2022-12-25T02:48:43.517Z,12.37
2022-12-25T02:54:02.611Z,15.43
2022-12-25T02:59:21.341Z,13.00
2022-12-25T03:04:43.006Z,12.47
2022-12-25T03:10:06.442Z,8.57
2022-12-25T03:15:27.067Z,7.00
2022-12-25T03:20:49.222Z,6.17
2022-12-25T03:26:06.568Z,10.23
2022-12-25T03:31:18.204Z,7.00
2022-12-25T03:36:36.245Z,4.83
2022-12-25T03:41:59.202Z,6.73
2022-12-25T03:47:34.225Z,7.83
2022-12-25T03:52:55.514Z,5.63
2022-12-25T03:58:14.251Z,8.30
2022-12-25T04:03:31.731Z,6.80
2022-12-25T04:08:51.568Z,7.50
2022-12-25T04:14:09.096Z,8.20
2022-12-25T04:19:26.473Z,4.37
2022-12-25T04:24:47.635Z,8.50
2022-12-25T04:30:04.918Z,8.67
2022-12-25T04:35:22.836Z,13.10
2022-12-25T04:40:30.384Z,9.23
2022-12-25T04:45:35.276Z,9.17
2022-12-25T04:50:40.189Z,6.60
2022-12-25T04:55:47.796Z,8.03
2022-12-25T05:00:53.073Z,7.53
2022-12-25T05:05:57.949Z,10.83
2022-12-25T05:11:08.996Z,14.13
2022-12-25T05:16:17.571Z,5.77
2022-12-25T05:21:23.297Z,11.73
2022-12-25T05:26:30.975Z,8.53
2022-12-25T05:31:38.080Z,14.93
2022-12-25T05:36:43.039Z,11.17
2022-12-25T05:41:50.620Z,11.60
2022-12-25T05:46:55.635Z,8.77
2022-12-25T05:52:00.556Z,11.03
2022-12-25T05:57:08.158Z,11.30
2022-12-25T06:02:13.180Z,10.47
2022-12-25T06:07:20.082Z,13.50
2022-12-25T06:12:27.777Z,8.73
2022-12-25T06:17:32.673Z,9.33
2022-12-25T06:22:38.101Z,10.40
2022-12-25T06:27:45.722Z,8.70
2022-12-25T06:32:50.674Z,9.93
2022-12-25T06:37:56.721Z,12.10
2022-12-25T06:43:04.311Z,11.97
2022-12-25T06:48:09.309Z,10.47
2022-12-25T06:53:14.331Z,23.30
2022-12-25T06:58:23.884Z,12.93
2022-12-25T07:03:30.959Z,11.03
2022-12-25T07:08:35.937Z,20.77
2022-12-25T07:13:43.883Z,11.10
2022-12-25T07:18:50.981Z,12.17
2022-12-25T07:23:58.043Z,13.47
2022-12-25T07:29:05.522Z,9.93
2022-12-25T07:34:11.681Z,14.07
2022-12-25T07:39:19.098Z,11.73
2022-12-25T07:44:26.672Z,8.67
2022-12-25T07:49:31.666Z,14.97
2022-12-25T07:54:37.333Z,20.17
2022-12-25T07:59:45.166Z,18.50
2022-12-25T08:04:50.031Z,21.60
2022-12-25T08:09:54.925Z,19.67
2022-12-25T08:15:02.448Z,18.53
2022-12-25T08:20:08.813Z,19.00
2022-12-25T08:25:13.686Z,20.73
2022-12-25T08:30:23.391Z,19.63
2022-12-25T08:35:28.926Z,18.73
2022-12-25T08:40:33.896Z,15.70
2022-12-25T08:45:41.737Z,18.03
2022-12-25T08:50:53.329Z,20.97
2022-12-25T08:56:04.541Z,20.37
2022-12-25T09:01:15.483Z,26.90
2022-12-25T09:06:22.393Z,23.33
2022-12-25T09:11:29.405Z,24.17
2022-12-25T09:16:40.217Z,27.00
2022-12-25T09:21:57.116Z,24.20
2022-12-25T09:27:02.266Z,23.17
2022-12-25T09:32:11.560Z,25.13
2022-12-25T09:37:17.138Z,26.37
2022-12-25T09:42:28.702Z,18.80
2022-12-25T09:47:41.383Z,18.73
2022-12-25T09:52:52.404Z,16.63
2022-12-25T09:58:01.002Z,15.77
2022-12-25T10:03:22.111Z,17.80
2022-12-25T10:08:40.216Z,17.03
2022-12-25T10:14:09.740Z,14.90
2022-12-25T10:19:38.679Z,15.80
2022-12-25T10:24:48.496Z,12.67
2022-12-25T10:29:57.594Z,14.83
2022-12-25T10:35:05.531Z,16.80
2022-12-25T10:40:31.658Z,12.60
2022-12-25T10:45:47.760Z,13.40
2022-12-25T10:50:55.996Z,12.87
2022-12-25T10:56:03.470Z,20.20
2022-12-25T11:01:11.008Z,16.87
2022-12-25T11:06:29.674Z,13.23
2022-12-25T11:11:44.211Z,17.03
2022-12-25T11:16:49.821Z,13.70
2022-12-25T11:21:59.803Z,14.73
2022-12-25T11:27:08.569Z,12.93
2022-12-25T11:32:22.490Z,8.17
2022-12-25T11:37:36.933Z,9.80
2022-12-25T11:42:45.591Z,15.13
2022-12-25T11:47:54.940Z,10.73
2022-12-25T11:53:06.161Z,14.87
2022-12-25T11:58:21.114Z,12.40
2022-12-25T12:03:31.531Z,15.17
2022-12-25T12:08:39.767Z,15.57
2022-12-25T12:14:00.474Z,11.33
2022-12-25T12:19:14.083Z,14.07
2022-12-25T12:24:25.384Z,12.63
2022-12-25T12:29:32.744Z,13.60
2022-12-25T12:34:44.445Z,9.97
2022-12-25T12:39:55.411Z,11.97
2022-12-25T12:45:10.381Z,13.23
2022-12-25T12:50:38.047Z,12.77
2022-12-25T12:55:45.854Z,9.47
2022-12-25T13:00:58.642Z,13.47
2022-12-25T13:06:11.825Z,15.80
2022-12-25T13:11:23.106Z,15.63
2022-12-25T13:16:32.153Z,11.97
2022-12-25T13:21:38.586Z,16.50
2022-12-25T13:26:46.392Z,15.57
2022-12-25T13:31:51.647Z,14.67
2022-12-25T13:36:59.007Z,17.93
2022-12-25T13:42:10.271Z,14.13
2022-12-25T13:47:25.539Z,18.50
2022-12-25T13:52:37.224Z,15.90
2022-12-25T13:57:49.250Z,15.33
2022-12-25T14:02:55.251Z,15.80
2022-12-25T14:08:02.022Z,14.87
2022-12-25T14:13:14.239Z,14.60
2022-12-25T14:18:20.801Z,15.03
2022-12-25T14:23:26.308Z,15.03
2022-12-25T14:28:36.604Z,17.07
2022-12-25T14:33:43.016Z,16.30
2022-12-25T14:38:58.036Z,15.70
2022-12-25T14:44:08.360Z,12.77
2022-12-25T14:49:26.872Z,14.17
2022-12-25T14:54:31.811Z,17.03
2022-12-25T14:59:40.812Z,20.67
2022-12-25T15:04:49.410Z,18.87
2022-12-25T15:10:18.417Z,18.00
2022-12-25T15:15:22.013Z,18.50
2022-12-25T15:20:35.444Z,17.70
2022-12-25T15:25:40.414Z,22.50
2022-12-25T15:30:50.219Z,17.43
2022-12-25T15:35:57.385Z,16.53
2022-12-25T15:41:02.817Z,19.43
2022-12-25T15:46:13.091Z,19.63
2022-12-25T15:51:18.039Z,20.77
2022-12-25T15:56:23.771Z,20.93
2022-12-25T16:01:31.592Z,19.43
2022-12-25T16:06:36.786Z,20.27
2022-12-25T16:11:42.444Z,18.50
2022-12-25T16:16:50.188Z,19.73
2022-12-25T16:21:57.006Z,19.73
2022-12-25T16:27:04.149Z,18.33
2022-12-25T16:32:14.899Z,20.63
2022-12-25T16:37:20.071Z,25.00
2022-12-25T16:42:25.299Z,19.60
2022-12-25T16:47:33.836Z,24.37
2022-12-25T16:52:41.033Z,18.97
2022-12-25T16:57:47.777Z,21.90
2022-12-25T17:02:56.990Z,19.53
2022-12-25T17:08:02.251Z,16.30
2022-12-25T17:13:07.514Z,21.97
2022-12-25T17:18:15.300Z,20.10
2022-12-25T17:23:20.254Z,17.53
2022-12-25T17:28:27.577Z,18.53
2022-12-25T17:33:38.259Z,17.30
2022-12-25T17:38:43.505Z,18.53
2022-12-25T17:43:49.702Z,16.03
2022-12-25T17:48:58.969Z,21.67
2022-12-25T17:54:05.786Z,23.27
2022-12-25T17:59:12.194Z,19.13
2022-12-25T18:04:20.132Z,17.87
2022-12-25T18:09:25.099Z,17.53
2022-12-25T18:14:30.163Z,15.97
2022-12-25T18:19:37.987Z,17.40
2022-12-25T18:24:43.515Z,18.90
2022-12-25T18:29:49.262Z,19.43
2022-12-25T18:35:01.441Z,18.20
2022-12-25T18:40:07.301Z,16.77
2022-12-25T18:45:15.647Z,15.37
2022-12-25T18:50:25.604Z,16.23
2022-12-25T18:55:31.015Z,16.57
2022-12-25T19:00:39.067Z,18.83
2022-12-25T19:05:48.387Z,16.60
2022-12-25T19:10:55.346Z,15.50
2022-12-25T19:16:03.188Z,19.40
2022-12-25T19:21:11.939Z,14.77
2022-12-25T19:26:19.767Z,14.17
2022-12-25T19:31:25.307Z,15.60
2022-12-25T19:36:40.951Z,15.03
2022-12-25T19:41:46.174Z,15.10
2022-12-25T19:46:52.521Z,18.13
2022-12-25T19:52:02.612Z,14.03
2022-12-25T19:57:08.570Z,14.40
2022-12-25T20:02:15.267Z,15.53
2022-12-25T20:07:24.408Z,12.33
2022-12-25T20:12:31.983Z,14.57
2022-12-25T20:17:36.922Z,17.77
2022-12-25T20:22:44.471Z,14.50
2022-12-25T20:27:49.684Z,15.53
2022-12-25T20:32:55.506Z,18.13
2022-12-25T20:38:05.363Z,17.57
2022-12-25T20:43:11.910Z,19.73
2022-12-25T20:48:17.391Z,15.13
2022-12-25T20:53:24.929Z,16.03
2022-12-25T20:58:31.447Z,15.63
2022-12-25T21:03:36.792Z,17.83
2022-12-25T21:08:44.539Z,17.07
2022-12-25T21:13:49.643Z,19.67
2022-12-25T21:18:56.205Z,19.90
2022-12-25T21:24:04.221Z,23.53
2022-12-25T21:29:12.867Z,15.70
2022-12-25T21:34:18.077Z,14.80
2022-12-25T21:39:27.023Z,17.67
2022-12-25T21:44:32.441Z,15.77
2022-12-25T21:49:49.847Z,14.70
2022-12-25T21:54:57.513Z,18.10
2022-12-25T22:00:06.789Z,14.03
2022-12-25T22:05:32.122Z,18.70
2022-12-25T22:10:42.855Z,15.47
2022-12-25T22:16:00.260Z,20.60
2022-12-25T22:21:05.873Z,14.10
2022-12-25T22:26:18.781Z,12.43
2022-12-25T22:31:26.384Z,13.50
2022-12-25T22:36:31.906Z,16.17
2022-12-25T22:41:39.410Z,12.87
2022-12-25T22:46:44.448Z,14.73
2022-12-25T22:51:51.249Z,23.90
2022-12-25T22:57:00.410Z,15.53
2022-12-25T23:02:07.696Z,13.33
2022-12-25T23:07:14.662Z,13.60
2022-12-25T23:12:46.370Z,16.53
2022-12-25T23:18:03.924Z,16.07
2022-12-25T23:23:21.267Z,14.70
2022-12-25T23:28:41.036Z,15.47
2022-12-25T23:33:49.332Z,14.03
2022-12-25T23:39:03.046Z,13.00
2022-12-25T23:44:15.657Z,16.90
2022-12-25T23:49:20.661Z,15.10
2022-12-25T23:54:29.956Z,15.90
2022-12-25T23:59:37.783Z,12.50
